Terminal Aerodrome Forecast
Issued by NWS

Home | Current Version | Previous Version | Text Only | Print | Product List | Glossary On
Versions: 1 2 3 4 5 6 7 8 9 10 11 12 13 14 15 16 17 18 19 20 21 22 23 24 25 26
000
FTUS41 KBUF 302109 AAA
TAFJHW
TAF AMD
KJHW 302109Z 3021/3118 22013KT P6SM VCSH SCT040 BKN080
      TEMPO 3021/3023 3SM TSRA BKN030CB
     FM302300 21010KT P6SM VCSH BKN040
     FM310200 22005KT 4SM SHRA VCTS BKN035CB
     FM310500 22004KT 6SM -SHRA OVC025
     FM310900 03007KT 3/4SM -RA BR OVC004
     FM311500 06013KT 4SM -RA BR OVC007
      AMD LTD TO CLD VIS AND WIND=

USA.gov is the U.S. government's official web portal to all federal, state and local government web resources and services.